createdAt,value
2023-05-05T00:07:59.461Z,15.60
2023-05-05T00:18:03.117Z,15.70
2023-05-05T00:28:06.821Z,16.30
2023-05-05T00:38:10.372Z,15.20
2023-05-05T00:48:16.118Z,13.90
2023-05-05T00:58:19.893Z,14.80
2023-05-05T01:08:27.067Z,12.50
2023-05-05T01:18:34.831Z,11.80
2023-05-05T01:28:53.184Z,13.00
2023-05-05T01:38:57.628Z,15.20
2023-05-05T01:49:02.325Z,14.50
2023-05-05T01:59:06.544Z,10.60
2023-05-05T02:09:13.184Z,10.30
2023-05-05T02:19:19.241Z,12.30
2023-05-05T02:29:22.688Z,15.20
2023-05-05T02:39:30.759Z,17.10
2023-05-05T02:49:34.316Z,20.50
2023-05-05T02:59:49.254Z,19.60
2023-05-05T03:09:55.870Z,14.80
2023-05-05T03:20:02.287Z,16.90
2023-05-05T03:30:09.165Z,17.10
2023-05-05T03:40:14.119Z,18.20
2023-05-05T03:50:17.128Z,16.30
2023-05-05T04:00:19.879Z,12.40
2023-05-05T04:10:24.129Z,12.60
2023-05-05T04:20:27.776Z,14.10
2023-05-05T04:30:31.400Z,16.80
2023-05-05T04:40:38.999Z,23.10
2023-05-05T04:50:42.738Z,19.60
2023-05-05T05:00:47.168Z,33.20
2023-05-05T05:10:51.521Z,24.10
2023-05-05T05:20:55.667Z,19.30
2023-05-05T05:30:59.984Z,10.60
2023-05-05T05:41:06.186Z,9.10
2023-05-05T05:51:09.778Z,10.30
2023-05-05T06:01:13.585Z,9.60
2023-05-05T06:11:17.209Z,8.50
2023-05-05T06:21:21.117Z,5.40
2023-05-05T06:31:25.346Z,5.00
2023-05-05T06:41:29.375Z,5.70
2023-05-05T06:51:33.103Z,5.40
2023-05-05T07:01:36.720Z,4.70
2023-05-05T07:11:40.425Z,4.80
2023-05-05T07:21:44.122Z,4.00
2023-05-05T07:31:47.834Z,4.10
2023-05-05T07:41:51.743Z,4.40
2023-05-05T07:51:56.047Z,3.30
2023-05-05T08:01:59.610Z,3.80
2023-05-05T08:12:03.918Z,3.60
2023-05-05T08:22:07.618Z,3.00
2023-05-05T08:32:11.524Z,3.90
2023-05-05T08:42:25.423Z,2.70
2023-05-05T08:52:38.055Z,2.70
2023-05-05T09:02:42.456Z,2.70
2023-05-05T09:12:46.601Z,2.70
2023-05-05T09:22:50.559Z,2.60
2023-05-05T09:32:55.813Z,3.30
2023-05-05T09:43:01.965Z,3.00
2023-05-05T09:53:06.677Z,4.10
2023-05-05T10:03:10.397Z,3.60
2023-05-05T10:13:15.471Z,3.90
2023-05-05T10:23:22.523Z,2.40
2023-05-05T10:33:32.243Z,2.80
2023-05-05T10:43:37.443Z,2.80
2023-05-05T10:53:44.474Z,2.40
2023-05-05T11:03:49.416Z,2.30
2023-05-05T11:14:25.483Z,3.10
2023-05-05T11:24:29.246Z,2.20
2023-05-05T11:34:33.057Z,2.60
2023-05-05T11:44:37.728Z,2.60
2023-05-05T11:54:47.280Z,2.40
2023-05-05T12:04:52.399Z,2.20
2023-05-05T12:14:56.180Z,2.40
2023-05-05T12:25:02.052Z,2.80
2023-05-05T12:35:08.090Z,2.40
2023-05-05T12:45:17.614Z,2.20
2023-05-05T12:55:21.480Z,2.40
2023-05-05T13:05:31.273Z,3.50
2023-05-05T13:15:36.044Z,2.30
2023-05-05T13:25:39.948Z,2.40
2023-05-05T13:35:43.987Z,1.80
2023-05-05T13:45:47.666Z,2.00
2023-05-05T13:55:51.386Z,2.40
2023-05-05T14:05:55.050Z,2.60
2023-05-05T14:15:58.834Z,2.20
2023-05-05T14:26:03.040Z,1.90
2023-05-05T14:36:07.007Z,2.40
2023-05-05T14:46:11.631Z,2.70
2023-05-05T14:56:15.599Z,3.00
2023-05-05T15:06:20.104Z,1.90
2023-05-05T15:16:23.825Z,2.20
2023-05-05T15:26:30.707Z,1.60
2023-05-05T15:36:34.116Z,1.80
2023-05-05T15:56:42.491Z,2.10
2023-05-05T16:06:46.547Z,2.00
2023-05-05T16:16:50.219Z,2.00
2023-05-05T16:26:54.328Z,1.70
2023-05-05T16:36:58.303Z,2.10
2023-05-05T16:47:04.168Z,2.50
2023-05-05T16:57:12.289Z,2.10
2023-05-05T17:07:16.018Z,2.50
2023-05-05T17:17:20.297Z,2.80
2023-05-05T17:27:24.521Z,3.00
2023-05-05T17:37:28.825Z,3.90
2023-05-05T17:47:32.776Z,3.70
2023-05-05T17:57:36.655Z,3.80
2023-05-05T18:07:40.769Z,5.80
2023-05-05T18:17:44.544Z,5.00
2023-05-05T18:27:51.722Z,6.30
2023-05-05T18:37:55.721Z,6.50
2023-05-05T18:47:59.524Z,14.60
2023-05-05T18:58:03.277Z,10.50
2023-05-05T19:08:10.731Z,5.20
2023-05-05T19:18:14.359Z,5.70
2023-05-05T19:28:18.344Z,5.30
2023-05-05T19:38:22.191Z,5.20
2023-05-05T19:48:26.341Z,5.00
2023-05-05T19:58:30.981Z,5.10
2023-05-05T20:08:34.549Z,4.60
2023-05-05T20:18:38.037Z,4.20
2023-05-05T20:28:44.768Z,4.90
2023-05-05T20:38:49.422Z,5.90
2023-05-05T20:48:53.336Z,5.40
2023-05-05T20:58:56.634Z,4.80
2023-05-05T21:09:04.950Z,6.30
2023-05-05T21:19:08.871Z,5.80
2023-05-05T21:29:13.158Z,6.60
2023-05-05T21:39:16.788Z,5.30
2023-05-05T21:49:20.308Z,5.50
2023-05-05T21:59:27.761Z,5.90
2023-05-05T22:09:31.926Z,5.90
2023-05-05T22:19:36.259Z,5.90
2023-05-05T22:29:40.500Z,5.60
2023-05-05T22:39:44.355Z,6.00
2023-05-05T22:49:48.171Z,5.80
2023-05-05T22:59:52.413Z,6.10
2023-05-05T23:09:56.142Z,6.30
2023-05-05T23:20:01.927Z,6.60
2023-05-05T23:30:07.278Z,5.70
2023-05-05T23:40:10.986Z,6.20
2023-05-05T23:50:14.543Z,6.40
